Time;durP1;ratioP1;P1;durP2;ratioP2;P2;SDS_P1;SDS_P2;PMS_P1;PMS_P2;Temp;Humidity;BMP_temperature;BMP_pressure;BME280_temperature;BME280_humidity;BME280_pressure;Samples;Min_cycle;Max_cycle;Signal;HPM_P1;HPM_P2
2024/01/05 00:01:22;;;;;;;;;;;;;;;8.54;100.00;98780.44;7304591;19;20130;-65
2024/01/05 00:03:49;;;;;;;;;;;;;;;8.48;100.00;98787.25;7319358;19;19923;-66
2024/01/05 00:06:16;;;;;;;;;;;;;;;8.50;100.00;98795.75;7299220;19;21253;-67
2024/01/05 00:08:43;;;;;;;;;;;;;;;8.50;100.00;98800.16;7294697;19;20367;-66
2024/01/05 00:11:15;;;;;;;;;;;;;;;8.48;100.00;98794.31;7296600;19;20249;-66
2024/01/05 00:13:42;;;;;;;;;;;;;;;8.52;100.00;98798.19;7290463;19;19926;-67
2024/01/05 00:16:17;;;;;;;;;;;;;;;8.52;100.00;98806.03;7291488;19;19914;-67
2024/01/05 00:18:44;;;;;;;;;;;;;;;8.51;100.00;98814.91;7292835;19;20174;-66
2024/01/05 00:21:24;;;;;;;;;;;;;;;8.49;100.00;98814.25;7293277;19;20175;-66
2024/01/05 00:23:51;;;;;;;;;;;;;;;8.45;100.00;98821.69;7307528;19;19918;-67
2024/01/05 00:26:18;;;;;;;;;;;;;;;8.41;100.00;98828.31;7301047;19;20279;-66
2024/01/05 00:28:46;;;;;;;;;;;;;;;8.36;100.00;98825.47;7296073;19;19922;-66
2024/01/05 00:31:13;;;;;;;;;;;;;;;8.28;100.00;98828.16;7300395;19;20773;-67
2024/01/05 00:33:40;;;;;;;;;;;;;;;8.28;100.00;98827.38;7293375;19;19910;-66
2024/01/05 00:36:11;;;;;;;;;;;;;;;8.24;100.00;98847.06;7291948;19;20454;-66
2024/01/05 00:38:38;;;;;;;;;;;;;;;8.19;100.00;98831.91;7282273;19;20383;-66
2024/01/05 00:41:05;;;;;;;;;;;;;;;8.13;100.00;98854.41;7288079;19;19922;-65
2024/01/05 00:43:32;;;;;;;;;;;;;;;8.10;100.00;98860.03;7308187;19;19991;-67
2024/01/05 00:45:59;;;;;;;;;;;;;;;8.05;100.00;98857.16;7297205;19;20179;-66
2024/01/05 00:48:26;;;;;;;;;;;;;;;8.02;100.00;98854.94;7292003;19;19930;-66
2024/01/05 00:50:53;;;;;;;;;;;;;;;8.03;100.00;98877.47;7296327;19;20295;-67
2024/01/05 00:53:20;;;;;;;;;;;;;;;7.96;100.00;98874.00;7290273;19;20006;-67
2024/01/05 00:55:46;;;;;;;;;;;;;;;7.95;100.00;98882.84;7302381;19;20447;-66
2024/01/05 00:58:13;;;;;;;;;;;;;;;7.93;100.00;98881.38;7291807;19;19949;-66
2024/01/05 01:00:41;;;;;;;;;;;;;;;7.86;100.00;98883.94;7289605;19;19923;-68
2024/01/05 01:03:10;;;;;;;;;;;;;;;7.83;100.00;98892.16;7281684;19;19925;-66
2024/01/05 01:05:37;;;;;;;;;;;;;;;7.84;100.00;98892.97;7286071;19;19941;-67
2024/01/05 01:08:04;;;;;;;;;;;;;;;7.81;100.00;98896.78;7281915;19;20491;-67
2024/01/05 01:10:34;;;;;;;;;;;;;;;7.74;100.00;98899.31;7298141;19;20374;-67
2024/01/05 01:13:01;;;;;;;;;;;;;;;7.71;100.00;98896.25;7297015;19;19923;-66
2024/01/05 01:15:29;;;;;;;;;;;;;;;7.70;100.00;98898.06;7300942;19;19933;-67
2024/01/05 01:17:56;;;;;;;;;;;;;;;7.71;100.00;98904.09;7276692;19;20701;-67
2024/01/05 01:20:23;;;;;;;;;;;;;;;7.66;100.00;98898.59;7291473;19;19955;-66
2024/01/05 01:22:50;;;;;;;;;;;;;;;7.65;100.00;98910.88;7290904;19;20597;-66
2024/01/05 01:25:16;;;;;;;;;;;;;;;7.67;100.00;98908.03;7290410;19;19947;-67
2024/01/05 01:27:43;;;;;;;;;;;;;;;7.66;100.00;98919.53;7284824;19;21127;-67
2024/01/05 01:30:10;;;;;;;;;;;;;;;7.70;100.00;98926.84;7285035;19;20806;-66
2024/01/05 01:32:41;;;;;;;;;;;;;;;7.71;100.00;98923.22;7296229;19;19930;-67
2024/01/05 01:35:07;;;;;;;;;;;;;;;7.70;100.00;98929.47;7295253;19;20370;-66
2024/01/05 01:37:34;;;;;;;;;;;;;;;7.68;100.00;98939.28;7306761;19;19929;-67
2024/01/05 01:40:01;;;;;;;;;;;;;;;7.68;100.00;98947.13;7303068;19;20002;-67
2024/01/05 01:42:32;;;;;;;;;;;;;;;7.76;100.00;98951.47;7295756;19;22037;-68
2024/01/05 01:45:00;;;;;;;;;;;;;;;7.76;100.00;98964.56;7295718;19;19937;-66
2024/01/05 01:47:28;;;;;;;;;;;;;;;7.79;100.00;98973.84;7288341;19;19922;-66
2024/01/05 01:49:56;;;;;;;;;;;;;;;7.76;100.00;98964.56;7285120;19;20633;-67
2024/01/05 01:52:29;;;;;;;;;;;;;;;7.73;100.00;98970.16;7290515;19;20752;-66
2024/01/05 01:54:56;;;;;;;;;;;;;;;7.72;100.00;98969.34;7291450;19;19918;-65
2024/01/05 01:57:23;;;;;;;;;;;;;;;7.70;100.00;98981.00;7301063;19;19919;-66
2024/01/05 01:59:54;;;;;;;;;;;;;;;7.72;100.00;98989.44;7304435;19;21033;-65
2024/01/05 02:02:21;;;;;;;;;;;;;;;7.73;100.00;98993.69;7290277;19;19919;-66
2024/01/05 02:04:50;;;;;;;;;;;;;;;7.74;100.00;98998.75;7305076;19;20071;-66
2024/01/05 02:07:17;;;;;;;;;;;;;;;7.74;100.00;99003.19;7295337;19;19926;-67
2024/01/05 02:09:45;;;;;;;;;;;;;;;7.68;100.00;99009.94;7286870;19;20310;-67
2024/01/05 02:12:15;;;;;;;;;;;;;;;7.70;100.00;99007.16;7314915;19;19923;-67
2024/01/05 02:14:42;;;;;;;;;;;;;;;7.68;100.00;99012.56;7303681;19;20552;-66
2024/01/05 02:17:28;;;;;;;;;;;;;;;7.68;100.00;99016.97;7294828;19;20493;-66
2024/01/05 02:19:59;;;;;;;;;;;;;;;7.69;100.00;99014.19;7291759;19;21061;-66
2024/01/05 02:22:32;;;;;;;;;;;;;;;7.74;100.00;99024.13;7296808;19;20199;-66
2024/01/05 02:24:59;;;;;;;;;;;;;;;7.75;99.83;99025.75;7297741;19;19919;-66
2024/01/05 02:27:26;;;;;;;;;;;;;;;7.76;99.66;99031.81;7295904;19;19915;-66
2024/01/05 02:29:53;;;;;;;;;;;;;;;7.73;98.67;99036.41;7298091;19;19986;-66
2024/01/05 02:32:20;;;;;;;;;;;;;;;7.69;97.19;99050.03;7303082;19;20127;-66
2024/01/05 02:34:47;;;;;;;;;;;;;;;7.67;97.31;99062.47;7289575;19;20317;-66
2024/01/05 02:37:14;;;;;;;;;;;;;;;7.67;97.15;99059.84;7306853;19;20494;-67
2024/01/05 02:39:41;;;;;;;;;;;;;;;7.66;96.87;99064.28;7290936;19;19978;-66
2024/01/05 02:42:08;;;;;;;;;;;;;;;7.64;96.43;99068.06;7284257;19;20481;-66
2024/01/05 02:44:35;;;;;;;;;;;;;;;7.66;97.12;99080.00;7296774;19;19930;-67
2024/01/05 02:47:02;;;;;;;;;;;;;;;7.65;97.64;99090.63;7294281;19;20366;-67
2024/01/05 02:49:29;;;;;;;;;;;;;;;7.63;96.83;99079.53;7294196;19;20645;-66
2024/01/05 02:51:56;;;;;;;;;;;;;;;7.62;96.62;99093.59;7293368;19;19926;-65
2024/01/05 02:54:23;;;;;;;;;;;;;;;7.60;96.87;99099.03;7288102;19;20446;-66
2024/01/05 02:56:50;;;;;;;;;;;;;;;7.60;97.16;99106.06;7290490;19;20601;-66
2024/01/05 02:59:17;;;;;;;;;;;;;;;7.57;97.36;99103.78;7292602;19;19926;-65
2024/01/05 03:01:43;;;;;;;;;;;;;;;7.59;97.88;99117.50;7297465;19;20566;-66
2024/01/05 03:04:11;;;;;;;;;;;;;;;7.56;96.77;99118.69;7297009;19;20502;-68
2024/01/05 03:06:38;;;;;;;;;;;;;;;7.51;96.46;99133.28;7303527;19;19982;-66
2024/01/05 03:09:07;;;;;;;;;;;;;;;7.49;97.16;99132.63;7300738;19;19915;-67
2024/01/05 03:11:35;;;;;;;;;;;;;;;7.52;98.36;99130.47;7298282;19;19917;-66
2024/01/05 03:14:02;;;;;;;;;;;;;;;7.49;96.51;99148.34;7299297;19;20390;-67
2024/01/05 03:16:29;;;;;;;;;;;;;;;7.46;96.97;99144.28;7293523;19;20463;-66
2024/01/05 03:18:56;;;;;;;;;;;;;;;7.51;97.81;99151.59;7296225;19;20372;-66
2024/01/05 03:21:23;;;;;;;;;;;;;;;7.51;97.48;99157.66;7297319;19;20565;-67
2024/01/05 03:23:50;;;;;;;;;;;;;;;7.55;98.11;99165.97;7292699;19;22157;-65
2024/01/05 03:26:17;;;;;;;;;;;;;;;7.54;98.17;99172.16;7293303;19;19939;-66
2024/01/05 03:28:44;;;;;;;;;;;;;;;7.55;98.61;99177.25;7301989;19;19925;-67
2024/01/05 03:31:12;;;;;;;;;;;;;;;7.55;98.69;99177.25;7291362;19;20211;-66
2024/01/05 03:33:40;;;;;;;;;;;;;;;7.58;99.13;99181.28;7300274;19;20639;-66
2024/01/05 03:36:08;;;;;;;;;;;;;;;7.57;99.13;99183.09;7300344;19;21476;-67
2024/01/05 03:38:35;;;;;;;;;;;;;;;7.60;99.14;99188.00;7294464;19;19919;-66
2024/01/05 03:41:02;;;;;;;;;;;;;;;7.63;100.00;99186.81;7304620;19;21019;-66
2024/01/05 03:43:29;;;;;;;;;;;;;;;7.65;100.00;99185.69;7300557;19;20451;-66
2024/01/05 03:45:56;;;;;;;;;;;;;;;7.60;99.72;99184.56;7301139;19;20397;-66
2024/01/05 03:48:23;;;;;;;;;;;;;;;7.62;100.00;99179.94;7286713;19;19922;-65
2024/01/05 03:50:50;;;;;;;;;;;;;;;7.61;100.00;99196.66;7295641;19;19922;-66
2024/01/05 03:53:17;;;;;;;;;;;;;;;7.61;100.00;99204.53;7288526;19;19962;-66
2024/01/05 03:55:44;;;;;;;;;;;;;;;7.61;100.00;99202.72;7285268;19;20628;-66
2024/01/05 03:58:10;;;;;;;;;;;;;;;7.65;100.00;99200.56;7293772;19;20303;-66
2024/01/05 04:00:37;;;;;;;;;;;;;;;7.64;100.00;99202.38;7285181;19;20163;-66
2024/01/05 04:03:04;;;;;;;;;;;;;;;7.67;100.00;99203.78;7296765;19;20315;-67
2024/01/05 04:05:32;;;;;;;;;;;;;;;7.70;100.00;99214.75;7297792;19;20647;-66
2024/01/05 04:07:58;;;;;;;;;;;;;;;7.73;100.00;99205.72;7295330;19;19918;-69
2024/01/05 04:10:25;;;;;;;;;;;;;;;7.78;100.00;99216.47;7279016;19;19998;-66
2024/01/05 04:12:52;;;;;;;;;;;;;;;7.76;100.00;99215.88;7298606;19;21094;-66
2024/01/05 04:15:20;;;;;;;;;;;;;;;7.77;100.00;99216.69;7286117;19;20802;-66
2024/01/05 04:17:47;;;;;;;;;;;;;;;7.80;100.00;99218.94;7306471;19;20228;-66
2024/01/05 04:20:14;;;;;;;;;;;;;;;7.80;100.00;99218.94;7298156;19;20510;-66
2024/01/05 04:22:41;;;;;;;;;;;;;;;7.81;100.00;99220.56;7298988;19;19955;-66
2024/01/05 04:25:08;;;;;;;;;;;;;;;7.85;100.00;99221.84;7292073;19;21849;-66
2024/01/05 04:27:34;;;;;;;;;;;;;;;7.88;100.00;99226.72;7287487;19;20670;-66
2024/01/05 04:30:03;;;;;;;;;;;;;;;7.88;100.00;99222.28;7291277;19;19926;-70
2024/01/05 04:32:35;;;;;;;;;;;;;;;7.91;100.00;99226.38;7300591;19;19922;-65
2024/01/05 04:35:03;;;;;;;;;;;;;;;7.92;100.00;99228.03;7281353;19;20133;-66
2024/01/05 04:37:30;;;;;;;;;;;;;;;7.96;100.00;99229.28;7289112;19;20009;-65
2024/01/05 04:39:57;;;;;;;;;;;;;;;7.99;100.00;99229.75;7298245;19;20542;-66
2024/01/05 04:42:26;;;;;;;;;;;;;;;7.99;100.00;99224.50;7297559;19;20274;-66
2024/01/05 04:44:53;;;;;;;;;;;;;;;7.97;100.00;99225.69;7287559;19;19941;-66
2024/01/05 04:47:20;;;;;;;;;;;;;;;8.00;100.00;99236.63;7283647;19;19915;-66
2024/01/05 04:49:47;;;;;;;;;;;;;;;8.00;100.00;99231.38;7293790;19;20090;-66
2024/01/05 04:52:14;;;;;;;;;;;;;;;7.99;100.00;99234.97;7296510;19;19933;-66
2024/01/05 04:54:41;;;;;;;;;;;;;;;7.94;100.00;99232.06;7291491;19;19937;-67
2024/01/05 04:57:08;;;;;;;;;;;;;;;7.94;100.00;99244.34;7302952;19;19990;-65
2024/01/05 04:59:34;;;;;;;;;;;;;;;7.99;100.00;99242.03;7299524;19;19919;-66
2024/01/05 05:02:01;;;;;;;;;;;;;;;8.02;100.00;99252.97;7292581;19;21747;-66
2024/01/05 05:04:28;;;;;;;;;;;;;;;8.04;100.00;99252.78;7299372;19;20434;-65
2024/01/05 05:06:55;;;;;;;;;;;;;;;8.01;100.00;99261.81;7282498;19;19939;-67
2024/01/05 05:09:22;;;;;;;;;;;;;;;8.03;100.00;99257.22;7292699;19;19910;-66
2024/01/05 05:11:48;;;;;;;;;;;;;;;8.07;100.00;99268.16;7311336;19;19932;-65
2024/01/05 05:14:15;;;;;;;;;;;;;;;8.07;100.00;99270.78;7291209;19;19915;-65
2024/01/05 05:16:42;;;;;;;;;;;;;;;8.04;100.00;99278.97;7295190;19;19927;-66
2024/01/05 05:19:09;;;;;;;;;;;;;;;8.05;100.00;99278.81;7291229;19;19934;-66
2024/01/05 05:21:36;;;;;;;;;;;;;;;8.08;100.00;99288.94;7287394;19;20375;-69
2024/01/05 05:24:04;;;;;;;;;;;;;;;8.03;100.00;99286.00;7294095;19;19911;-65
2024/01/05 05:26:33;;;;;;;;;;;;;;;8.06;100.00;99284.88;7282707;19;19945;-65
2024/01/05 05:29:00;;;;;;;;;;;;;;;8.07;100.00;99292.56;7278315;19;20029;-67
2024/01/05 05:31:27;;;;;;;;;;;;;;;8.10;100.00;99294.00;7295570;19;20960;-67
2024/01/05 05:33:56;;;;;;;;;;;;;;;8.11;100.00;99296.44;7283991;19;20326;-66
2024/01/05 05:36:23;;;;;;;;;;;;;;;8.09;100.00;99302.84;7300403;19;20309;-66
2024/01/05 05:38:50;;;;;;;;;;;;;;;8.10;100.00;99301.84;7286191;19;20849;-66
2024/01/05 05:41:17;;;;;;;;;;;;;;;8.09;100.00;99305.47;7289864;19;20391;-67
2024/01/05 05:43:48;;;;;;;;;;;;;;;8.13;100.00;99306.72;7307054;19;19919;-67
2024/01/05 05:46:15;;;;;;;;;;;;;;;8.15;100.00;99307.38;7309563;19;19922;-66
2024/01/05 05:48:42;;;;;;;;;;;;;;;8.15;100.00;99326.53;7320397;19;20949;-65
2024/01/05 05:51:11;;;;;;;;;;;;;;;8.10;100.00;99325.44;7299325;19;19926;-65
2024/01/05 05:53:38;;;;;;;;;;;;;;;8.10;100.00;99328.88;7288490;19;19949;-65
2024/01/05 05:56:05;;;;;;;;;;;;;;;8.09;100.00;99334.25;7281882;19;20417;-69
2024/01/05 05:58:31;;;;;;;;;;;;;;;8.09;100.00;99334.25;7297799;19;19914;-67
2024/01/05 06:00:59;;;;;;;;;;;;;;;8.06;100.00;99343.31;7311853;19;19985;-66
2024/01/05 06:03:27;;;;;;;;;;;;;;;8.08;100.00;99348.34;7293278;19;20253;-67
2024/01/05 06:05:54;;;;;;;;;;;;;;;8.07;100.00;99349.38;7299605;19;19979;-66
2024/01/05 06:08:21;;;;;;;;;;;;;;;8.08;100.00;99357.03;7292248;19;20624;-67
2024/01/05 06:10:47;;;;;;;;;;;;;;;8.05;100.00;99354.75;7298908;19;19998;-67
2024/01/05 06:13:14;;;;;;;;;;;;;;;8.08;100.00;99353.59;7294433;19;20006;-67
2024/01/05 06:15:41;;;;;;;;;;;;;;;8.09;100.00;99363.09;7301600;19;20185;-66
2024/01/05 06:18:08;;;;;;;;;;;;;;;8.06;100.00;99368.69;7290414;19;20362;-66
2024/01/05 06:20:35;;;;;;;;;;;;;;;8.07;100.00;99373.75;7294533;19;20397;-67
2024/01/05 06:23:02;;;;;;;;;;;;;;;8.09;100.00;99373.56;7286322;19;19934;-66
2024/01/05 06:25:30;;;;;;;;;;;;;;;8.14;100.00;99387.78;7293790;19;19922;-66
2024/01/05 06:27:56;;;;;;;;;;;;;;;8.16;100.00;99391.03;7287733;19;20675;-65
2024/01/05 06:30:23;;;;;;;;;;;;;;;8.16;100.00;99398.09;7297217;19;20477;-66
2024/01/05 06:32:52;;;;;;;;;;;;;;;8.15;100.00;99397.25;7293538;19;19918;-65
2024/01/05 06:35:21;;;;;;;;;;;;;;;8.18;100.00;99406.56;7289515;19;19918;-67
2024/01/05 06:37:48;;;;;;;;;;;;;;;8.17;100.00;99404.97;7304596;19;19950;-66
2024/01/05 06:40:15;;;;;;;;;;;;;;;8.19;100.00;99402.97;7303869;19;19990;-66
2024/01/05 06:42:43;;;;;;;;;;;;;;;8.16;100.00;99408.56;7294422;19;19926;-66
2024/01/05 06:45:10;;;;;;;;;;;;;;;8.16;100.00;99405.94;7291024;19;20297;-65
2024/01/05 06:47:37;;;;;;;;;;;;;;;8.16;100.00;99417.25;7280357;19;19923;-65
2024/01/05 06:50:04;;;;;;;;;;;;;;;8.16;100.00;99419.03;7286401;19;19930;-66
2024/01/05 06:52:31;;;;;;;;;;;;;;;8.14;100.00;99418.38;7275857;19;20265;-67
2024/01/05 06:54:59;;;;;;;;;;;;;;;8.14;100.00;99421.00;7293554;19;22685;-67
2024/01/05 06:57:29;;;;;;;;;;;;;;;8.17;100.00;99423.31;7301912;19;19923;-66
2024/01/05 06:59:56;;;;;;;;;;;;;;;8.18;100.00;99425.72;7305820;19;20329;-67
2024/01/05 07:02:23;;;;;;;;;;;;;;;8.22;100.00;99431.47;7300729;19;20464;-66
2024/01/05 07:04:53;;;;;;;;;;;;;;;8.22;100.00;99452.41;7283524;19;20457;-66
2024/01/05 07:07:19;;;;;;;;;;;;;;;8.22;100.00;99452.41;7284902;19;19927;-69
2024/01/05 07:09:46;;;;;;;;;;;;;;;8.23;100.00;99448.00;7297743;19;20994;-68
2024/01/05 07:12:13;;;;;;;;;;;;;;;8.24;100.00;99453.03;7296490;19;19998;-66
2024/01/05 07:14:40;;;;;;;;;;;;;;;8.25;100.00;99459.09;7305641;19;19922;-66
2024/01/05 07:17:07;;;;;;;;;;;;;;;8.26;100.00;99461.56;7296063;19;19918;-65
2024/01/05 07:19:35;;;;;;;;;;;;;;;8.27;100.00;99465.00;7295590;19;19979;-66
2024/01/05 07:22:02;;;;;;;;;;;;;;;8.25;100.00;99473.03;7294405;19;19978;-67
2024/01/05 07:24:29;;;;;;;;;;;;;;;8.27;100.00;99475.47;7303081;19;19922;-66
2024/01/05 07:26:56;;;;;;;;;;;;;;;8.25;100.00;99480.88;7293852;19;19994;-67
2024/01/05 07:29:23;;;;;;;;;;;;;;;8.25;100.00;99482.69;7295554;19;19927;-67
2024/01/05 07:31:50;;;;;;;;;;;;;;;8.24;100.00;99487.09;7304297;19;19995;-66
2024/01/05 07:34:17;;;;;;;;;;;;;;;8.22;100.00;99499.56;7300099;19;20015;-66
2024/01/05 07:36:43;;;;;;;;;;;;;;;8.22;100.00;99489.09;7298598;19;20964;-67
2024/01/05 07:39:11;;;;;;;;;;;;;;;8.24;100.00;99499.38;7294870;19;19926;-66
2024/01/05 07:41:39;;;;;;;;;;;;;;;8.22;100.00;99504.81;7297086;19;19919;-66
2024/01/05 07:44:08;;;;;;;;;;;;;;;8.16;100.00;99503.69;7305870;19;20947;-69
2024/01/05 07:46:41;;;;;;;;;;;;;;;8.15;100.00;99511.72;7289632;19;20899;-67
2024/01/05 07:49:08;;;;;;;;;;;;;;;8.15;100.00;99514.31;7289666;19;19923;-67
2024/01/05 07:51:36;;;;;;;;;;;;;;;8.17;100.00;99517.59;7293204;19;20034;-67
2024/01/05 07:54:06;;;;;;;;;;;;;;;8.18;100.00;99515.81;7295679;19;20471;-67
2024/01/05 07:56:37;;;;;;;;;;;;;;;8.18;100.00;99522.66;7294086;19;19925;-67
2024/01/05 07:59:04;;;;;;;;;;;;;;;8.20;100.00;99519.06;7293066;19;19958;-68
2024/01/05 08:01:40;;;;;;;;;;;;;;;8.18;100.00;99521.84;7285274;19;19922;-67
2024/01/05 08:04:09;;;;;;;;;;;;;;;8.22;100.00;99523.16;7292413;19;19915;-66
2024/01/05 08:06:36;;;;;;;;;;;;;;;8.21;100.00;99531.16;7311873;19;20259;-67
2024/01/05 08:09:03;;;;;;;;;;;;;;;8.23;100.00;99523.97;7297759;19;19953;-66
2024/01/05 08:11:31;;;;;;;;;;;;;;;8.23;100.00;99535.25;7302694;19;19927;-66
2024/01/05 08:13:59;;;;;;;;;;;;;;;8.25;100.00;99542.94;7299486;19;19922;-66
2024/01/05 08:16:26;;;;;;;;;;;;;;;8.24;100.00;99543.91;7308564;19;20308;-67
2024/01/05 08:18:53;;;;;;;;;;;;;;;8.24;100.00;99547.34;7309753;19;19934;-68
2024/01/05 08:21:20;;;;;;;;;;;;;;;8.25;99.93;99556.88;7302518;19;19927;-66
2024/01/05 08:23:48;;;;;;;;;;;;;;;8.26;100.00;99560.31;7299215;19;19918;-67
2024/01/05 08:26:18;;;;;;;;;;;;;;;8.26;100.00;99561.13;7307936;19;20411;-65
2024/01/05 08:28:45;;;;;;;;;;;;;;;8.27;100.00;99554.09;7312211;19;19951;-66
2024/01/05 08:31:13;;;;;;;;;;;;;;;8.28;100.00;99566.19;7315789;19;19923;-67
2024/01/05 08:33:40;;;;;;;;;;;;;;;8.26;100.00;99563.75;7303683;19;19914;-68
2024/01/05 08:36:07;;;;;;;;;;;;;;;8.29;100.00;99566.00;7289753;19;21075;-67
2024/01/05 08:38:35;;;;;;;;;;;;;;;8.28;99.68;99574.84;7275332;19;19921;-66
2024/01/05 08:41:02;;;;;;;;;;;;;;;8.27;99.89;99570.63;7276034;19;20023;-67
2024/01/05 08:43:30;;;;;;;;;;;;;;;8.28;99.94;99576.69;7296999;19;19987;-67
2024/01/05 08:45:57;;;;;;;;;;;;;;;8.30;99.49;99585.19;7313613;19;20267;-66
2024/01/05 08:48:24;;;;;;;;;;;;;;;8.30;99.35;99578.16;7311354;19;20452;-66
2024/01/05 08:50:51;;;;;;;;;;;;;;;8.31;98.84;99586.84;7301119;19;19945;-66
2024/01/05 08:53:19;;;;;;;;;;;;;;;8.30;98.86;99587.81;7294676;19;19925;-67
2024/01/05 08:55:47;;;;;;;;;;;;;;;8.32;99.47;99591.09;7282225;19;19927;-66
2024/01/05 08:58:15;;;;;;;;;;;;;;;8.31;99.18;99595.53;7291309;19;20830;-66
2024/01/05 09:00:42;;;;;;;;;;;;;;;8.29;98.48;99599.25;7302975;19;19930;-66
2024/01/05 09:03:10;;;;;;;;;;;;;;;8.26;98.50;99607.47;7298191;19;19925;-66
2024/01/05 09:05:39;;;;;;;;;;;;;;;8.23;98.73;99611.22;7290824;19;22035;-66
2024/01/05 09:08:06;;;;;;;;;;;;;;;8.25;99.70;99611.06;7300716;19;21520;-66
2024/01/05 09:10:34;;;;;;;;;;;;;;;8.24;99.47;99615.47;7287490;19;19923;-66
2024/01/05 09:13:11;;;;;;;;;;;;;;;8.24;99.51;99619.91;7285546;19;19930;-68
2024/01/05 09:15:38;;;;;;;;;;;;;;;8.26;99.62;99620.56;7293409;19;19927;-67
2024/01/05 09:18:05;;;;;;;;;;;;;;;8.29;99.57;99630.69;7286962;19;20474;-67
2024/01/05 09:20:32;;;;;;;;;;;;;;;8.26;98.69;99628.41;7295553;19;19922;-66
2024/01/05 09:23:01;;;;;;;;;;;;;;;8.29;98.71;99635.94;7311417;19;20505;-67
2024/01/05 09:25:30;;;;;;;;;;;;;;;8.36;99.45;99647.44;7299448;19;20125;-66
2024/01/05 09:28:03;;;;;;;;;;;;;;;8.75;100.00;99655.31;7291324;19;19946;-66
2024/01/05 09:30:31;;;;;;;;;;;;;;;9.06;100.00;99650.91;7288779;19;20119;-66
2024/01/05 09:33:09;;;;;;;;;;;;;;;9.10;100.00;99652.19;7284772;19;19919;-67
2024/01/05 09:35:38;;;;;;;;;;;;;;;9.09;100.00;99652.38;7295214;19;19958;-66
2024/01/05 09:38:05;;;;;;;;;;;;;;;8.98;100.00;99664.09;7289589;19;20582;-65
2024/01/05 09:40:33;;;;;;;;;;;;;;;8.91;99.76;99676.22;7292793;19;20681;-66
2024/01/05 09:43:08;;;;;;;;;;;;;;;8.85;98.32;99680.34;7286460;19;19927;-65
2024/01/05 09:45:38;;;;;;;;;;;;;;;8.78;97.14;99684.66;7292351;19;20190;-66
2024/01/05 09:48:05;;;;;;;;;;;;;;;8.76;96.57;99689.25;7278893;19;20424;-66
2024/01/05 09:50:34;;;;;;;;;;;;;;;8.73;96.42;99694.84;7291385;19;19930;-65
2024/01/05 09:53:09;;;;;;;;;;;;;;;8.67;95.87;99694.69;7294535;19;20609;-65
2024/01/05 09:55:38;;;;;;;;;;;;;;;8.63;95.72;99704.69;7313433;19;20621;-66
2024/01/05 09:58:05;;;;;;;;;;;;;;;8.60;95.80;99710.25;7303995;19;19915;-66
2024/01/05 10:00:33;;;;;;;;;;;;;;;8.65;95.93;99720.25;7289282;19;19930;-65
2024/01/05 10:03:08;;;;;;;;;;;;;;;8.67;96.24;99726.97;7296380;19;19921;-65
2024/01/05 10:05:37;;;;;;;;;;;;;;;8.64;95.73;99732.53;7290458;19;19927;-66
2024/01/05 10:08:04;;;;;;;;;;;;;;;8.63;96.29;99730.09;7295156;19;19926;-64
2024/01/05 10:10:44;;;;;;;;;;;;;;;8.66;95.94;99735.00;7295593;19;20282;-65
2024/01/05 10:13:14;;;;;;;;;;;;;;;8.67;96.54;99732.22;7293286;19;19923;-65
2024/01/05 10:15:55;;;;;;;;;;;;;;;8.68;96.20;99736.47;7295267;19;20137;-65
2024/01/05 10:18:22;;;;;;;;;;;;;;;8.73;96.39;99742.03;7298813;19;19952;-66
2024/01/05 10:20:52;;;;;;;;;;;;;;;8.73;95.66;99749.09;7306044;19;20433;-65
2024/01/05 10:23:19;;;;;;;;;;;;;;;8.73;95.93;99746.47;7296866;19;20486;-66
2024/01/05 10:25:47;;;;;;;;;;;;;;;8.77;95.95;99755.63;7293933;19;19934;-66
2024/01/05 10:28:37;;;;;;;;;;;;;;;8.75;94.81;99755.78;7301633;19;19950;-65
2024/01/05 10:31:15;;;;;;;;;;;;;;;8.78;96.06;99759.88;7291746;19;20411;-67
2024/01/05 10:33:47;;;;;;;;;;;;;;;8.80;95.58;99771.84;7312731;19;20084;-65
2024/01/05 10:36:18;;;;;;;;;;;;;;;8.84;95.53;99780.19;7305389;19;19925;-65
2024/01/05 10:38:47;;;;;;;;;;;;;;;8.87;95.13;99772.81;7324356;19;19941;-66
2024/01/05 10:41:16;;;;;;;;;;;;;;;8.87;94.93;99785.09;7320898;19;20388;-66
2024/01/05 10:43:46;;;;;;;;;;;;;;;8.91;95.09;99773.28;7308236;19;19918;-67
2024/01/05 10:46:20;;;;;;;;;;;;;;;8.93;94.22;99782.63;7298968;19;19930;-65
2024/01/05 10:48:49;;;;;;;;;;;;;;;8.95;93.86;99775.41;7305907;19;19926;-65
2024/01/05 10:51:19;;;;;;;;;;;;;;;8.99;94.44;99776.69;7304499;19;19994;-65
2024/01/05 10:53:46;;;;;;;;;;;;;;;8.96;93.62;99777.03;7299431;19;21219;-65
2024/01/05 10:56:16;;;;;;;;;;;;;;;8.99;92.56;99783.75;7295212;19;19919;-65
2024/01/05 10:58:47;;;;;;;;;;;;;;;8.95;92.52;99788.50;7290597;19;20372;-66
2024/01/05 11:01:19;;;;;;;;;;;;;;;8.94;92.66;99786.06;7311995;19;19915;-66
2024/01/05 11:03:50;;;;;;;;;;;;;;;8.96;93.07;99784.91;7301089;19;19929;-68
2024/01/05 11:06:20;;;;;;;;;;;;;;;9.02;92.97;99786.03;7308478;19;20668;-68
2024/01/05 11:08:57;;;;;;;;;;;;;;;9.05;92.74;99793.56;7311523;19;19954;-65
2024/01/05 11:11:42;;;;;;;;;;;;;;;9.06;92.57;99783.91;7317468;19;19918;-66
2024/01/05 11:14:10;;;;;;;;;;;;;;;9.09;92.53;99792.28;7296597;19;19926;-65
2024/01/05 11:16:38;;;;;;;;;;;;;;;9.10;92.37;99790.44;7312485;19;20474;-66
2024/01/05 11:19:15;;;;;;;;;;;;;;;9.13;92.53;99784.88;7296290;19;19925;-66
2024/01/05 11:21:44;;;;;;;;;;;;;;;9.17;93.01;99791.41;7309794;19;19915;-65
2024/01/05 11:24:13;;;;;;;;;;;;;;;9.15;92.24;99794.19;7304279;19;21070;-66
2024/01/05 11:26:44;;;;;;;;;;;;;;;9.16;91.50;99793.22;7300597;19;19934;-66
2024/01/05 11:29:13;;;;;;;;;;;;;;;9.16;91.63;99785.34;7299459;19;19949;-65
2024/01/05 11:31:48;;;;;;;;;;;;;;;9.18;91.91;99791.25;7294315;19;19923;-66
2024/01/05 11:34:37;;;;;;;;;;;;;;;9.19;91.97;99792.06;7310122;19;20626;-65
2024/01/05 11:37:05;;;;;;;;;;;;;;;9.22;91.53;99794.34;7299735;19;19962;-65
2024/01/05 11:39:40;;;;;;;;;;;;;;;9.21;91.52;99800.56;7300994;19;19955;-65
2024/01/05 11:42:27;;;;;;;;;;;;;;;9.21;92.04;99790.91;7298449;19;19914;-65
2024/01/05 11:44:57;;;;;;;;;;;;;;;9.22;92.54;99795.16;7294105;19;20499;-65
2024/01/05 11:47:44;;;;;;;;;;;;;;;9.26;92.67;99795.63;7285715;19;20738;-67
2024/01/05 11:50:27;;;;;;;;;;;;;;;9.28;93.35;99802.38;7298705;19;19919;-66
2024/01/05 11:53:11;;;;;;;;;;;;;;;9.30;93.30;99802.16;7292012;19;20606;-68
2024/01/05 11:55:44;;;;;;;;;;;;;;;9.30;92.67;99804.78;7285426;19;20011;-66
2024/01/05 11:58:15;;;;;;;;;;;;;;;9.34;92.86;99808.75;7294395;19;20021;-67
2024/01/05 12:00:44;;;;;;;;;;;;;;;9.39;93.26;99806.44;7295487;19;21220;-67
2024/01/05 12:03:13;;;;;;;;;;;;;;;9.42;92.79;99804.25;7290107;19;21513;-66
2024/01/05 12:05:47;;;;;;;;;;;;;;;9.42;91.50;99812.16;7302679;19;19929;-66
2024/01/05 12:08:18;;;;;;;;;;;;;;;9.36;91.21;99812.81;7292027;19;22525;-66
2024/01/05 12:10:51;;;;;;;;;;;;;;;9.43;91.51;99810.34;7295298;19;20494;-66
2024/01/05 12:13:24;;;;;;;;;;;;;;;9.47;91.77;99816.88;7304400;19;20291;-65
2024/01/05 12:15:55;;;;;;;;;;;;;;;9.49;91.56;99817.53;7305216;19;20128;-66
2024/01/05 12:18:30;;;;;;;;;;;;;;;9.53;92.46;99807.50;7294914;19;20309;-67
2024/01/05 12:21:05;;;;;;;;;;;;;;;9.51;92.46;99812.09;7300278;19;19949;-67
2024/01/05 12:23:34;;;;;;;;;;;;;;;9.51;91.49;99809.47;7312063;19;19986;-67
2024/01/05 12:26:05;;;;;;;;;;;;;;;9.45;91.24;99810.97;7301062;19;19927;-67
2024/01/05 12:28:35;;;;;;;;;;;;;;;9.45;91.52;99816.22;7295741;19;19919;-67
2024/01/05 12:31:05;;;;;;;;;;;;;;;9.45;92.23;99821.47;7294363;19;19917;-67
2024/01/05 12:33:35;;;;;;;;;;;;;;;9.45;92.00;99817.03;7306965;19;19922;-67
2024/01/05 12:36:04;;;;;;;;;;;;;;;9.47;92.10;99814.25;7302185;19;19925;-66
2024/01/05 12:38:36;;;;;;;;;;;;;;;9.49;92.06;99814.09;7294614;19;19923;-67
2024/01/05 12:41:08;;;;;;;;;;;;;;;9.50;91.56;99811.28;7285279;19;19918;-66
2024/01/05 12:43:36;;;;;;;;;;;;;;;9.51;92.25;99817.34;7278745;19;19923;-66
2024/01/05 12:46:06;;;;;;;;;;;;;;;9.55;92.86;99819.47;7301125;19;19923;-66
2024/01/05 12:48:34;;;;;;;;;;;;;;;9.51;91.27;99820.78;7298271;19;19921;-67
2024/01/05 12:51:07;;;;;;;;;;;;;;;9.51;91.64;99817.34;7285318;19;20926;-66
2024/01/05 12:53:38;;;;;;;;;;;;;;;9.52;91.64;99830.31;7310166;19;20767;-66
2024/01/05 12:56:16;;;;;;;;;;;;;;;9.49;91.00;99816.72;7307600;19;19965;-66
2024/01/05 12:58:46;;;;;;;;;;;;;;;9.44;90.13;99825.94;7288342;19;19919;-67